Time,TemperatureF,DewpointF,PressureIn,WindDirection,WindDirectionDegrees,WindSpeedMPH,WindSpeedGustMPH,Humidity,HourlyPrecipIn,Conditions,Clouds,dailyrainin,SolarRadiationWatts/m^2,SoftwareType,DateUTC
2013-03-23 00:00:00,66.6,64.8,29.78,North,349,0.0,3.0,94,0.00,,,0.00,0.0,meteohub,2013-03-23 05:00:00,
2013-03-23 00:05:00,66.6,64.8,29.78,North,349,1.0,4.0,94,0.00,,,0.00,0.0,meteohub,2013-03-23 05:05:00,
2013-03-23 00:10:00,66.7,64.9,29.78,NNW,348,0.0,4.0,94,0.00,,,0.00,0.0,meteohub,2013-03-23 05:10:00,
2013-03-23 00:15:00,66.7,64.9,29.77,North,349,0.0,2.0,94,0.00,,,0.00,0.0,meteohub,2013-03-23 05:15:00,
2013-03-23 00:20:00,66.7,64.9,29.77,NE,36,0.0,2.0,94,0.00,,,0.00,0.0,meteohub,2013-03-23 05:20:00,
2013-03-23 00:25:00,66.7,64.6,29.77,NE,45,0.0,2.0,93,0.00,,,0.00,0.0,meteohub,2013-03-23 05:25:00,
2013-03-23 00:30:00,66.6,64.4,29.76,NE,45,0.0,4.0,93,0.00,,,0.00,0.0,meteohub,2013-03-23 05:30:00,
2013-03-23 00:35:00,66.4,64.0,29.76,NE,46,0.0,4.0,92,0.00,,,0.00,0.0,meteohub,2013-03-23 05:35:00,
2013-03-23 00:41:00,66.0,63.7,29.77,NE,45,0.0,1.0,92,0.00,,,0.00,0.0,meteohub,2013-03-23 05:41:00,
2013-03-23 00:46:00,65.8,63.5,29.77,NE,46,0.0,1.0,92,0.00,,,0.00,0.0,meteohub,2013-03-23 05:46:00,
2013-03-23 00:51:00,65.8,63.7,29.76,NE,46,0.0,1.0,93,0.00,,,0.00,0.0,meteohub,2013-03-23 05:51:00,
2013-03-23 00:56:00,65.8,63.7,29.76,NE,53,0.0,1.0,93,0.00,,,0.00,0.0,meteohub,2013-03-23 05:56:00,
2013-03-23 01:01:00,65.8,63.7,29.76,ENE,61,0.0,1.0,93,0.00,,,0.00,0.0,meteohub,2013-03-23 06:01:00,
2013-03-23 01:06:00,65.8,63.7,29.76,ENE,68,0.0,3.0,93,0.00,,,0.00,0.0,meteohub,2013-03-23 06:06:00,
2013-03-23 01:12:00,66.0,64.2,29.76,ENE,59,0.0,3.0,94,0.00,,,0.00,0.0,meteohub,2013-03-23 06:12:00,
2013-03-23 01:17:00,66.2,64.4,29.76,ENE,61,0.0,3.0,94,0.00,,,0.00,0.0,meteohub,2013-03-23 06:17:00,
2013-03-23 01:22:00,66.4,64.6,29.76,ENE,61,0.0,3.0,94,0.00,,,0.00,0.0,meteohub,2013-03-23 06:22:00,
2013-03-23 01:27:00,66.6,64.8,29.76,ENE,59,0.0,2.0,94,0.00,,,0.00,0.0,meteohub,2013-03-23 06:27:00,
2013-03-23 01:32:00,66.7,65.3,29.76,ENE,59,0.0,2.0,95,0.00,,,0.00,0.0,meteohub,2013-03-23 06:32:00,
2013-03-23 01:37:00,66.9,65.5,29.76,ENE,59,0.0,2.0,95,0.00,,,0.00,0.0,meteohub,2013-03-23 06:37:00,
2013-03-23 01:42:00,67.1,65.7,29.76,ENE,59,0.0,2.0,95,0.00,,,0.00,0.0,meteohub,2013-03-23 06:42:00,
2013-03-23 01:47:00,67.1,65.7,29.76,ENE,59,0.0,1.0,95,0.00,,,0.00,0.0,meteohub,2013-03-23 06:47:00,
2013-03-23 01:52:00,67.3,65.8,29.76,ENE,59,0.0,1.0,95,0.00,,,0.00,0.0,meteohub,2013-03-23 06:52:00,
2013-03-23 01:57:00,67.5,66.0,29.75,East,96,0.0,0.0,95,0.00,,,0.00,0.0,meteohub,2013-03-23 06:57:00,
2013-03-23 02:02:00,67.6,66.2,29.75,East,96,0.0,0.0,95,0.00,,,0.00,0.0,meteohub,2013-03-23 07:02:00,
2013-03-23 02:07:00,67.6,66.2,29.75,East,95,0.0,3.0,95,0.00,,,0.00,0.0,meteohub,2013-03-23 07:07:00,
2013-03-23 02:12:00,67.6,66.2,29.75,East,96,0.0,3.0,95,0.00,,,0.00,0.0,meteohub,2013-03-23 07:12:00,
2013-03-23 02:17:00,67.8,66.4,29.75,East,96,0.0,2.0,95,0.00,,,0.00,0.0,meteohub,2013-03-23 07:17:00,
2013-03-23 02:22:00,67.8,66.4,29.75,East,96,0.0,2.0,95,0.00,,,0.00,0.0,meteohub,2013-03-23 07:22:00,
2013-03-23 02:27:00,67.8,66.4,29.75,ESE,115,0.0,2.0,95,0.00,,,0.00,0.0,meteohub,2013-03-23 07:27:00,
2013-03-23 02:32:00,67.8,66.4,29.76,ESE,107,0.0,2.0,95,0.00,,,0.00,0.0,meteohub,2013-03-23 07:32:00,
2013-03-23 02:37:00,67.8,66.4,29.76,ESE,106,0.0,4.0,95,0.00,,,0.00,0.0,meteohub,2013-03-23 07:37:00,
2013-03-23 02:42:00,67.8,66.4,29.76,ESE,107,0.0,4.0,95,0.00,,,0.00,0.0,meteohub,2013-03-23 07:42:00,
2013-03-23 02:47:00,67.8,66.4,29.75,ESE,107,0.0,4.0,95,0.00,,,0.00,0.0,meteohub,2013-03-23 07:47:00,
2013-03-23 02:52:00,67.8,66.4,29.75,ESE,107,0.0,4.0,95,0.00,,,0.00,0.0,meteohub,2013-03-23 07:52:00,
2013-03-23 02:57:00,67.8,66.4,29.75,ESE,107,0.0,2.0,95,0.00,,,0.00,0.0,meteohub,2013-03-23 07:57:00,
2013-03-23 03:02:00,67.8,66.4,29.75,ESE,107,0.0,2.0,95,0.00,,,0.00,0.0,meteohub,2013-03-23 08:02:00,
2013-03-23 03:07:00,67.8,66.4,29.74,ESE,106,0.0,1.0,95,0.00,,,0.00,0.0,meteohub,2013-03-23 08:07:00,
2013-03-23 03:12:00,67.8,66.4,29.74,ESE,107,0.0,1.0,95,0.00,,,0.00,0.0,meteohub,2013-03-23 08:12:00,
2013-03-23 03:17:00,67.8,66.4,29.74,ESE,106,0.0,2.0,95,0.00,,,0.00,0.0,meteohub,2013-03-23 08:17:00,
2013-03-23 03:22:00,67.8,66.4,29.74,ESE,107,0.0,2.0,95,0.00,,,0.00,0.0,meteohub,2013-03-23 08:22:00,
2013-03-23 03:27:00,67.8,66.4,29.74,ESE,107,0.0,0.0,95,0.00,,,0.00,0.0,meteohub,2013-03-23 08:27:00,
2013-03-23 03:32:00,67.8,66.4,29.74,ENE,72,0.0,0.0,95,0.00,,,0.00,0.0,meteohub,2013-03-23 08:32:00,
2013-03-23 03:37:00,67.8,66.4,29.73,ENE,72,0.0,2.0,95,0.00,,,0.00,0.0,meteohub,2013-03-23 08:37:00,
2013-03-23 03:42:00,67.8,66.4,29.73,ENE,72,0.0,2.0,95,0.00,,,0.00,0.0,meteohub,2013-03-23 08:42:00,
2013-03-23 03:47:00,67.8,66.0,29.73,ENE,72,0.0,2.0,94,0.00,,,0.00,0.0,meteohub,2013-03-23 08:47:00,
2013-03-23 03:52:00,67.8,66.0,29.73,ENE,72,0.0,2.0,94,0.00,,,0.00,0.0,meteohub,2013-03-23 08:52:00,
2013-03-23 03:57:00,67.8,66.0,29.73,ENE,75,0.0,0.0,94,0.00,,,0.00,0.0,meteohub,2013-03-23 08:57:00,
2013-03-23 04:02:00,67.8,66.0,29.73,ESE,122,0.0,0.0,94,0.00,,,0.00,0.0,meteohub,2013-03-23 09:02:00,
2013-03-23 04:07:00,67.8,66.0,29.73,SE,131,0.0,5.0,94,0.00,,,0.00,0.0,meteohub,2013-03-23 09:07:00,
2013-03-23 04:12:00,67.8,66.0,29.73,SE,131,0.0,5.0,94,0.00,,,0.00,0.0,meteohub,2013-03-23 09:12:00,
2013-03-23 04:17:00,67.6,65.5,29.73,SE,131,0.0,5.0,93,0.00,,,0.00,0.0,meteohub,2013-03-23 09:17:00,
2013-03-23 04:22:00,67.3,65.1,29.73,SE,131,0.0,5.0,93,0.00,,,0.00,0.0,meteohub,2013-03-23 09:22:00,
2013-03-23 04:27:00,66.7,64.4,29.73,SE,131,0.0,0.0,92,0.00,,,0.00,0.0,meteohub,2013-03-23 09:27:00,
2013-03-23 04:32:00,66.0,63.7,29.72,SE,131,0.0,0.0,92,0.00,,,0.00,0.0,meteohub,2013-03-23 09:32:00,
2013-03-23 04:38:00,65.5,63.1,29.72,SE,131,0.0,1.0,92,0.00,,,0.00,0.0,meteohub,2013-03-23 09:38:00,
2013-03-23 04:42:00,65.1,62.8,29.72,SE,131,0.0,1.0,92,0.00,,,0.00,0.0,meteohub,2013-03-23 09:42:00,
2013-03-23 04:48:00,64.9,62.6,29.72,NNE,25,0.0,1.0,92,0.00,,,0.00,0.0,meteohub,2013-03-23 09:48:00,
2013-03-23 04:53:00,64.6,62.2,29.72,NNE,25,0.0,1.0,92,0.00,,,0.00,0.0,meteohub,2013-03-23 09:53:00,
2013-03-23 04:58:00,64.6,62.2,29.71,North,11,2.0,4.0,92,0.00,,,0.00,0.0,meteohub,2013-03-23 09:58:00,
2013-03-23 05:03:00,64.6,62.2,29.71,North,11,0.0,4.0,92,0.00,,,0.00,0.0,meteohub,2013-03-23 10:03:00,
2013-03-23 05:08:00,64.6,62.2,29.71,North,11,0.0,4.0,92,0.00,,,0.00,0.0,meteohub,2013-03-23 10:08:00,
2013-03-23 05:13:00,64.4,62.1,29.71,North,11,0.0,3.0,92,0.00,,,0.00,0.0,meteohub,2013-03-23 10:13:00,
2013-03-23 05:18:00,64.6,62.2,29.72,North,11,0.0,3.0,92,0.00,,,0.00,0.0,meteohub,2013-03-23 10:18:00,
2013-03-23 05:23:00,64.6,62.2,29.73,North,11,0.0,0.0,92,0.00,,,0.00,0.0,meteohub,2013-03-23 10:23:00,
2013-03-23 05:28:00,64.6,62.2,29.73,North,11,0.0,0.0,92,0.00,,,0.00,0.0,meteohub,2013-03-23 10:28:00,
2013-03-23 05:33:00,64.6,62.2,29.73,North,11,0.0,0.0,92,0.00,,,0.00,0.0,meteohub,2013-03-23 10:33:00,
2013-03-23 05:38:00,64.6,62.2,29.73,North,11,0.0,0.0,92,0.00,,,0.00,0.0,meteohub,2013-03-23 10:38:00,
2013-03-23 05:43:00,64.6,62.2,29.73,North,11,0.0,0.0,92,0.00,,,0.00,0.0,meteohub,2013-03-23 10:43:00,
2013-03-23 05:48:00,64.6,62.2,29.73,North,11,0.0,0.0,92,0.00,,,0.00,0.0,meteohub,2013-03-23 10:48:00,
2013-03-23 05:53:00,64.6,62.2,29.73,North,11,0.0,0.0,92,0.00,,,0.00,0.0,meteohub,2013-03-23 10:53:00,
2013-03-23 05:58:00,64.2,61.5,29.73,North,11,0.0,0.0,91,0.00,,,0.00,0.0,meteohub,2013-03-23 10:58:00,
2013-03-23 06:03:00,64.2,61.5,29.73,North,11,0.0,1.0,91,0.00,,,0.00,0.0,meteohub,2013-03-23 11:03:00,
2013-03-23 06:08:00,64.0,61.3,29.74,North,11,0.0,1.0,91,0.00,,,0.00,0.0,meteohub,2013-03-23 11:08:00,
2013-03-23 06:13:00,63.9,61.2,29.74,North,11,0.0,1.0,91,0.00,,,0.00,0.0,meteohub,2013-03-23 11:13:00,
2013-03-23 06:18:00,63.7,60.6,29.74,North,358,0.0,1.0,90,0.00,,,0.00,0.0,meteohub,2013-03-23 11:18:00,
2013-03-23 06:23:00,63.7,60.6,29.74,North,358,0.0,1.0,90,0.00,,,0.00,0.0,meteohub,2013-03-23 11:23:00,
2013-03-23 06:28:00,63.3,60.3,29.74,North,358,0.0,1.0,90,0.00,,,0.00,0.0,meteohub,2013-03-23 11:28:00,
2013-03-23 06:33:00,63.3,60.3,29.74,North,358,0.0,3.0,90,0.00,,,0.00,0.0,meteohub,2013-03-23 11:33:00,
2013-03-23 06:38:00,63.1,60.1,29.74,North,358,0.0,3.0,90,0.00,,,0.00,0.0,meteohub,2013-03-23 11:38:00,
2013-03-23 06:43:00,63.1,60.1,29.74,North,358,0.0,2.0,90,0.00,,,0.00,0.0,meteohub,2013-03-23 11:43:00,
2013-03-23 06:48:00,63.0,59.9,29.74,North,358,0.0,2.0,90,0.00,,,0.00,0.0,meteohub,2013-03-23 11:48:00,
2013-03-23 06:53:00,63.0,59.9,29.74,North,358,1.0,2.0,90,0.00,,,0.00,0.0,meteohub,2013-03-23 11:53:00,
2013-03-23 06:58:00,63.0,60.3,29.74,WNW,289,0.0,2.0,91,0.00,,,0.00,0.0,meteohub,2013-03-23 11:58:00,
2013-03-23 07:03:00,63.0,60.3,29.74,WNW,294,0.0,2.0,91,0.00,,,0.00,0.0,meteohub,2013-03-23 12:03:00,
2013-03-23 07:08:00,63.0,60.3,29.74,WNW,294,0.0,5.0,91,0.00,,,0.00,0.0,meteohub,2013-03-23 12:08:00,
2013-03-23 07:13:00,62.8,60.1,29.74,WNW,294,0.0,5.0,91,0.00,,,0.00,0.0,meteohub,2013-03-23 12:13:00,
2013-03-23 07:19:00,62.8,60.1,29.73,WNW,294,0.0,5.0,91,0.00,,,0.00,5.0,meteohub,2013-03-23 12:19:00,
2013-03-23 07:24:00,62.8,60.1,29.74,North,8,0.0,3.0,91,0.00,,,0.00,7.0,meteohub,2013-03-23 12:24:00,
2013-03-23 07:29:00,63.0,60.3,29.74,North,2,0.0,3.0,91,0.00,,,0.00,9.0,meteohub,2013-03-23 12:29:00,
2013-03-23 07:34:00,63.0,60.3,29.74,North,2,0.0,4.0,91,0.00,,,0.00,12.0,meteohub,2013-03-23 12:34:00,
2013-03-23 07:39:00,63.0,60.3,29.75,North,2,0.0,4.0,91,0.00,,,0.00,14.0,meteohub,2013-03-23 12:39:00,
2013-03-23 07:44:00,63.0,60.6,29.75,North,2,0.0,4.0,92,0.00,,,0.00,14.0,meteohub,2013-03-23 12:44:00,
2013-03-23 07:49:00,63.0,60.6,29.75,North,2,0.0,3.0,92,0.00,,,0.00,23.0,meteohub,2013-03-23 12:49:00,
2013-03-23 07:54:00,63.0,60.3,29.76,North,2,0.0,3.0,91,0.00,,,0.00,28.0,meteohub,2013-03-23 12:54:00,
2013-03-23 07:59:00,62.8,60.1,29.76,North,0,0.0,3.0,91,0.00,,,0.00,33.0,meteohub,2013-03-23 12:59:00,
2013-03-23 08:04:00,62.8,60.1,29.77,North,0,0.0,2.0,91,0.00,,,0.00,28.0,meteohub,2013-03-23 13:04:00,
2013-03-23 08:09:00,62.6,59.9,29.77,North,0,0.0,2.0,91,0.00,,,0.00,35.0,meteohub,2013-03-23 13:09:00,
2013-03-23 08:14:00,62.6,59.9,29.78,North,0,0.0,2.0,91,0.00,,,0.00,39.0,meteohub,2013-03-23 13:14:00,
2013-03-23 08:19:00,62.4,59.7,29.78,North,0,0.0,1.0,91,0.00,,,0.00,35.0,meteohub,2013-03-23 13:19:00,
2013-03-23 08:24:00,62.4,59.4,29.78,North,0,0.0,1.0,90,0.00,,,0.00,33.0,meteohub,2013-03-23 13:24:00,
2013-03-23 08:29:00,62.2,59.2,29.79,North,0,0.0,0.0,90,0.00,,,0.00,32.0,meteohub,2013-03-23 13:29:00,
2013-03-23 08:34:00,62.2,59.2,29.79,North,0,0.0,0.0,90,0.00,,,0.00,26.0,meteohub,2013-03-23 13:34:00,
2013-03-23 08:39:00,62.2,59.2,29.79,North,0,0.0,0.0,90,0.00,,,0.00,28.0,meteohub,2013-03-23 13:39:00,
2013-03-23 08:44:00,62.2,59.2,29.80,North,0,0.0,1.0,90,0.00,,,0.00,32.0,meteohub,2013-03-23 13:44:00,
2013-03-23 08:49:00,62.1,59.2,29.80,North,0,0.0,1.0,90,0.00,,,0.00,46.0,meteohub,2013-03-23 13:49:00,
2013-03-23 08:54:00,62.1,59.4,29.80,North,0,0.0,1.0,91,0.00,,,0.00,42.0,meteohub,2013-03-23 13:54:00,
2013-03-23 08:59:00,62.1,59.4,29.80,North,0,0.0,0.0,91,0.00,,,0.00,53.0,meteohub,2013-03-23 13:59:00,
2013-03-23 09:04:00,62.1,59.2,29.80,North,0,0.0,0.0,90,0.00,,,0.00,44.0,meteohub,2013-03-23 14:04:00,
2013-03-23 09:09:00,62.1,59.4,29.79,North,0,0.0,1.0,91,0.00,,,0.00,69.0,meteohub,2013-03-23 14:09:00,
2013-03-23 09:14:00,62.1,59.4,29.79,North,0,0.0,1.0,91,0.00,,,0.00,76.0,meteohub,2013-03-23 14:14:00,
2013-03-23 09:19:00,62.1,59.4,29.79,North,0,0.0,1.0,91,0.00,,,0.00,70.0,meteohub,2013-03-23 14:19:00,
2013-03-23 09:24:00,62.1,59.4,29.79,North,353,0.0,2.0,91,0.00,,,0.00,93.0,meteohub,2013-03-23 14:24:00,
2013-03-23 09:29:00,62.2,59.5,29.80,NNW,340,0.0,2.0,91,0.00,,,0.00,60.0,meteohub,2013-03-23 14:29:00,
2013-03-23 09:34:00,62.2,59.5,29.79,North,352,0.0,4.0,91,0.00,,,0.00,76.0,meteohub,2013-03-23 14:34:00,
2013-03-23 09:39:00,62.4,59.7,29.79,North,352,0.0,4.0,91,0.00,,,0.00,95.0,meteohub,2013-03-23 14:39:00,
2013-03-23 09:44:00,62.2,59.2,29.79,North,351,0.0,4.0,90,0.00,,,0.00,100.0,meteohub,2013-03-23 14:44:00,
2013-03-23 09:49:00,62.4,59.4,29.79,North,351,0.0,4.0,90,0.00,,,0.00,77.0,meteohub,2013-03-23 14:49:00,
2013-03-23 09:54:00,62.4,59.4,29.79,North,352,0.0,4.0,90,0.00,,,0.00,81.0,meteohub,2013-03-23 14:54:00,
2013-03-23 09:59:00,62.6,59.5,29.80,North,352,0.0,4.0,90,0.00,,,0.00,83.0,meteohub,2013-03-23 14:59:00,
2013-03-23 10:04:00,62.4,59.4,29.80,North,351,0.0,1.0,90,0.00,,,0.00,56.0,meteohub,2013-03-23 15:04:00,
2013-03-23 10:09:00,62.4,59.4,29.80,North,351,0.0,1.0,90,0.00,,,0.00,72.0,meteohub,2013-03-23 15:09:00,
2013-03-23 10:14:00,62.2,59.2,29.80,North,352,0.0,1.0,90,0.00,,,0.00,72.0,meteohub,2013-03-23 15:14:00,
2013-03-23 10:20:00,62.2,59.2,29.80,North,351,0.0,2.0,90,0.00,,,0.00,70.0,meteohub,2013-03-23 15:20:00,
2013-03-23 10:25:00,62.2,59.2,29.80,WNW,291,1.0,2.0,90,0.00,,,0.00,97.0,meteohub,2013-03-23 15:25:00,
2013-03-23 10:30:00,62.2,59.2,29.80,West,274,0.0,4.0,90,0.00,,,0.00,116.0,meteohub,2013-03-23 15:30:00,
2013-03-23 10:35:00,62.2,59.0,29.80,West,273,0.0,4.0,89,0.00,,,0.00,116.0,meteohub,2013-03-23 15:35:00,
2013-03-23 10:40:00,62.2,59.0,29.80,West,274,0.0,4.0,89,0.00,,,0.00,134.0,meteohub,2013-03-23 15:40:00,
2013-03-23 10:45:00,62.2,59.0,29.80,WNW,296,0.0,2.0,89,0.00,,,0.00,120.0,meteohub,2013-03-23 15:45:00,
2013-03-23 10:50:00,62.2,59.0,29.80,WNW,296,0.0,2.0,89,0.00,,,0.00,116.0,meteohub,2013-03-23 15:50:00,
2013-03-23 10:55:00,62.2,58.6,29.80,WNW,296,0.0,4.0,88,0.00,,,0.00,139.0,meteohub,2013-03-23 15:55:00,
2013-03-23 11:00:00,62.4,58.8,29.80,WNW,295,0.0,4.0,88,0.00,,,0.00,141.0,meteohub,2013-03-23 16:00:00,
2013-03-23 11:05:00,62.6,59.0,29.79,WNW,295,0.0,4.0,88,0.00,,,0.00,149.0,meteohub,2013-03-23 16:05:00,
2013-03-23 11:10:00,62.8,58.8,29.79,WNW,296,0.0,1.0,87,0.00,,,0.00,120.0,meteohub,2013-03-23 16:10:00,
2013-03-23 11:15:00,62.8,58.8,29.79,WNW,295,0.0,1.0,87,0.00,,,0.00,142.0,meteohub,2013-03-23 16:15:00,
2013-03-23 11:20:00,63.0,59.0,29.79,WNW,296,0.0,1.0,87,0.00,,,0.00,118.0,meteohub,2013-03-23 16:20:00,
2013-03-23 11:25:00,63.0,59.0,29.79,WNW,296,0.0,1.0,87,0.00,,,0.00,105.0,meteohub,2013-03-23 16:25:00,
2013-03-23 11:30:00,63.0,58.6,29.78,WNW,295,0.0,1.0,86,0.00,,,0.00,97.0,meteohub,2013-03-23 16:30:00,
2013-03-23 11:35:00,63.0,59.0,29.78,WNW,296,0.0,1.0,87,0.00,,,0.00,132.0,meteohub,2013-03-23 16:35:00,
2013-03-23 11:40:00,63.1,59.2,29.78,WNW,296,0.0,1.0,87,0.00,,,0.00,146.0,meteohub,2013-03-23 16:40:00,
2013-03-23 11:45:00,63.3,59.0,29.78,WNW,296,0.0,1.0,86,0.00,,,0.00,142.0,meteohub,2013-03-23 16:45:00,
2013-03-23 11:50:00,63.3,59.0,29.78,WNW,296,0.0,3.0,86,0.00,,,0.00,130.0,meteohub,2013-03-23 16:50:00,
2013-03-23 11:55:00,63.7,59.4,29.78,NNE,32,0.0,3.0,86,0.00,,,0.00,102.0,meteohub,2013-03-23 16:55:00,
2013-03-23 12:00:00,63.9,59.5,29.77,NNW,336,0.0,3.0,86,0.00,,,0.00,88.0,meteohub,2013-03-23 17:00:00,
2013-03-23 12:05:00,63.9,59.5,29.77,WNW,296,0.0,3.0,86,0.00,,,0.00,109.0,meteohub,2013-03-23 17:05:00,
2013-03-23 12:10:00,64.0,59.7,29.77,WNW,296,0.0,3.0,86,0.00,,,0.00,98.0,meteohub,2013-03-23 17:10:00,
2013-03-23 12:15:00,64.0,59.7,29.76,WNW,296,0.0,3.0,86,0.00,,,0.00,125.0,meteohub,2013-03-23 17:15:00,
2013-03-23 12:20:00,64.2,59.5,29.76,WNW,296,0.0,5.0,85,0.00,,,0.00,120.0,meteohub,2013-03-23 17:20:00,
2013-03-23 12:25:00,64.2,59.5,29.76,WNW,296,0.0,5.0,85,0.00,,,0.00,88.0,meteohub,2013-03-23 17:25:00,
2013-03-23 12:30:00,64.4,59.7,29.76,WNW,295,0.0,3.0,85,0.00,,,0.00,83.0,meteohub,2013-03-23 17:30:00,
2013-03-23 12:35:00,64.6,59.9,29.75,WNW,296,0.0,3.0,85,0.00,,,0.00,88.0,meteohub,2013-03-23 17:35:00,
2013-03-23 12:40:00,64.6,59.9,29.75,NNW,328,0.0,2.0,85,0.00,,,0.00,76.0,meteohub,2013-03-23 17:40:00,
2013-03-23 12:45:00,64.6,59.9,29.75,NNW,329,0.0,2.0,85,0.00,,,0.00,83.0,meteohub,2013-03-23 17:45:00,
2013-03-23 12:50:00,64.8,60.4,29.75,NNW,328,0.0,2.0,86,0.00,,,0.00,65.0,meteohub,2013-03-23 17:50:00,
2013-03-23 12:55:00,64.8,60.4,29.74,NNW,329,0.0,1.0,86,0.00,,,0.00,77.0,meteohub,2013-03-23 17:55:00,
2013-03-23 13:00:00,64.9,60.6,29.74,NNW,342,0.0,1.0,86,0.00,,,0.00,69.0,meteohub,2013-03-23 18:00:00,
2013-03-23 13:05:00,64.9,60.6,29.74,NNW,343,0.0,2.0,86,0.00,,,0.00,69.0,meteohub,2013-03-23 18:05:00,
2013-03-23 13:10:00,65.1,60.8,29.73,NNW,343,0.0,2.0,86,0.00,,,0.00,70.0,meteohub,2013-03-23 18:10:00,
2013-03-23 13:15:00,65.5,61.2,29.73,NNE,14,2.0,2.0,86,0.00,,,0.00,79.0,meteohub,2013-03-23 18:15:00,
2013-03-23 13:20:00,65.7,61.7,29.73,NNE,19,0.0,2.0,87,0.00,,,0.00,139.0,meteohub,2013-03-23 18:20:00,
2013-03-23 13:25:00,65.8,61.9,29.72,North,358,4.0,5.0,87,0.00,,,0.00,139.0,meteohub,2013-03-23 18:25:00,
2013-03-23 13:30:00,65.8,61.9,29.72,NNE,32,0.0,5.0,87,0.00,,,0.00,193.0,meteohub,2013-03-23 18:30:00,
2013-03-23 13:35:00,66.2,62.2,29.71,NNE,32,1.0,6.0,87,0.00,,,0.00,234.0,meteohub,2013-03-23 18:35:00,
2013-03-23 13:40:00,66.6,62.6,29.70,NE,42,3.0,6.0,87,0.00,,,0.00,376.0,meteohub,2013-03-23 18:40:00,
2013-03-23 13:45:00,66.7,62.4,29.70,NNE,15,0.0,6.0,86,0.00,,,0.00,253.0,meteohub,2013-03-23 18:45:00,
2013-03-23 13:50:00,67.3,63.0,29.69,North,357,0.0,6.0,86,0.00,,,0.00,411.0,meteohub,2013-03-23 18:50:00,
2013-03-23 13:55:00,67.6,63.0,29.70,North,355,0.0,5.0,85,0.00,,,0.00,250.0,meteohub,2013-03-23 18:55:00,
2013-03-23 14:00:00,68.0,63.7,29.69,NNE,22,0.0,5.0,86,0.00,,,0.00,413.0,meteohub,2013-03-23 19:00:00,
2013-03-23 14:05:00,68.5,63.5,29.69,NNE,19,0.0,4.0,84,0.00,,,0.00,315.0,meteohub,2013-03-23 19:05:00,
2013-03-23 14:10:00,68.7,63.7,29.68,NNE,13,4.0,4.0,84,0.00,,,0.00,185.0,meteohub,2013-03-23 19:10:00,
2013-03-23 14:15:00,68.5,63.9,29.68,NW,323,0.0,5.0,85,0.00,,,0.00,225.0,meteohub,2013-03-23 19:15:00,
2013-03-23 14:20:00,68.9,63.9,29.68,North,359,1.0,5.0,84,0.00,,,0.00,193.0,meteohub,2013-03-23 19:20:00,
2013-03-23 14:25:00,69.1,64.0,29.67,NNE,19,0.0,5.0,84,0.00,,,0.00,230.0,meteohub,2013-03-23 19:25:00,
2013-03-23 14:30:00,69.3,64.2,29.67,North,11,0.0,5.0,84,0.00,,,0.00,246.0,meteohub,2013-03-23 19:30:00,
2013-03-23 14:36:00,69.4,64.4,29.67,North,357,0.0,4.0,84,0.00,,,0.00,350.0,meteohub,2013-03-23 19:36:00,
2013-03-23 14:41:00,70.5,64.8,29.66,NW,313,0.0,4.0,82,0.00,,,0.00,622.0,meteohub,2013-03-23 19:41:00,
2013-03-23 14:46:00,70.7,64.9,29.65,ENE,61,0.0,4.0,82,0.00,,,0.00,394.0,meteohub,2013-03-23 19:46:00,
2013-03-23 14:51:00,71.6,65.8,29.65,NE,52,0.0,4.0,82,0.00,,,0.00,387.0,meteohub,2013-03-23 19:51:00,
2013-03-23 14:57:00,71.2,65.1,29.65,North,6,0.0,5.0,81,0.00,,,0.00,178.0,meteohub,2013-03-23 19:57:00,
2013-03-23 15:02:00,71.1,64.9,29.64,NNE,14,0.0,5.0,81,0.00,,,0.00,197.0,meteohub,2013-03-23 20:02:00,
2013-03-23 15:07:00,71.1,65.3,29.63,NNE,14,1.0,4.0,82,0.00,,,0.00,225.0,meteohub,2013-03-23 20:07:00,
2013-03-23 15:12:00,71.2,65.5,29.63,NNE,27,0.0,4.0,82,0.00,,,0.00,188.0,meteohub,2013-03-23 20:12:00,
2013-03-23 15:17:00,71.2,65.5,29.63,NNE,26,0.0,7.0,82,0.00,,,0.00,230.0,meteohub,2013-03-23 20:17:00,
2013-03-23 15:22:00,71.8,65.7,29.63,NNW,344,0.0,7.0,81,0.00,,,0.00,188.0,meteohub,2013-03-23 20:22:00,
2013-03-23 15:27:00,71.6,65.5,29.62,NE,48,0.0,7.0,81,0.00,,,0.00,193.0,meteohub,2013-03-23 20:27:00,
2013-03-23 15:32:00,71.8,65.7,29.62,NNE,32,0.0,7.0,81,0.00,,,0.00,274.0,meteohub,2013-03-23 20:32:00,
2013-03-23 15:37:00,72.0,65.5,29.62,NNE,13,0.0,6.0,80,0.00,,,0.00,211.0,meteohub,2013-03-23 20:37:00,
2013-03-23 15:42:00,72.1,66.0,29.62,NNE,15,0.0,6.0,81,0.00,,,0.00,167.0,meteohub,2013-03-23 20:42:00,
2013-03-23 15:47:00,72.1,65.7,29.62,NE,34,0.0,5.0,80,0.00,,,0.00,239.0,meteohub,2013-03-23 20:47:00,
2013-03-23 15:52:00,72.3,65.5,29.62,ENE,62,0.0,5.0,79,0.00,,,0.00,199.0,meteohub,2013-03-23 20:52:00,
2013-03-23 15:57:00,72.1,65.3,29.61,NE,52,3.0,4.0,79,0.00,,,0.00,197.0,meteohub,2013-03-23 20:57:00,
2013-03-23 16:02:00,72.0,65.5,29.61,North,355,1.0,4.0,80,0.00,,,0.00,123.0,meteohub,2013-03-23 21:02:00,
2013-03-23 16:07:00,71.8,65.3,29.61,North,6,0.0,6.0,80,0.00,,,0.00,155.0,meteohub,2013-03-23 21:07:00,
2013-03-23 16:12:00,72.0,65.5,29.61,NNE,24,0.0,6.0,80,0.00,,,0.00,214.0,meteohub,2013-03-23 21:12:00,
2013-03-23 16:17:00,72.3,65.8,29.60,North,6,0.0,5.0,80,0.00,,,0.00,225.0,meteohub,2013-03-23 21:17:00,
2013-03-23 16:22:00,72.5,65.7,29.60,North,11,0.0,5.0,79,0.00,,,0.00,179.0,meteohub,2013-03-23 21:22:00,
2013-03-23 16:27:00,72.9,66.0,29.61,NE,44,0.0,5.0,79,0.00,,,0.00,155.0,meteohub,2013-03-23 21:27:00,
2013-03-23 16:32:00,72.7,65.8,29.60,NE,34,0.0,5.0,79,0.00,,,0.00,128.0,meteohub,2013-03-23 21:32:00,
2013-03-23 16:37:00,72.7,65.8,29.60,North,8,0.0,5.0,79,0.00,,,0.00,135.0,meteohub,2013-03-23 21:37:00,
2013-03-23 16:42:00,72.7,66.2,29.60,NNE,12,0.0,5.0,80,0.00,,,0.00,105.0,meteohub,2013-03-23 21:42:00,
2013-03-23 16:47:00,72.7,65.8,29.60,North,10,0.0,4.0,79,0.00,,,0.00,114.0,meteohub,2013-03-23 21:47:00,
2013-03-23 16:52:00,72.7,66.2,29.59,North,11,0.0,4.0,80,0.00,,,0.00,83.0,meteohub,2013-03-23 21:52:00,
2013-03-23 16:58:00,72.9,66.4,29.59,North,11,0.0,1.0,80,0.00,,,0.00,111.0,meteohub,2013-03-23 21:58:00,
2013-03-23 17:03:00,72.7,66.2,29.59,NNW,344,1.0,1.0,80,0.00,,,0.00,139.0,meteohub,2013-03-23 22:03:00,
2013-03-23 17:08:00,72.9,66.0,29.58,North,3,0.0,3.0,79,0.00,,,0.00,151.0,meteohub,2013-03-23 22:08:00,
2013-03-23 17:13:00,73.0,66.6,29.58,North,3,0.0,3.0,80,0.00,,,0.00,156.0,meteohub,2013-03-23 22:13:00,
2013-03-23 17:18:00,73.0,66.2,29.58,NE,52,0.0,4.0,79,0.00,,,0.00,146.0,meteohub,2013-03-23 22:18:00,
2013-03-23 17:23:00,73.0,66.2,29.58,NE,48,0.0,4.0,79,0.00,,,0.00,107.0,meteohub,2013-03-23 22:23:00,
2013-03-23 17:28:00,73.0,66.2,29.58,NE,48,0.0,3.0,79,0.00,,,0.00,118.0,meteohub,2013-03-23 22:28:00,
2013-03-23 17:33:00,73.2,66.4,29.58,NE,48,0.0,3.0,79,0.00,,,0.00,77.0,meteohub,2013-03-23 22:33:00,
2013-03-23 17:38:00,73.0,66.2,29.58,North,9,0.0,3.0,79,0.00,,,0.00,54.0,meteohub,2013-03-23 22:38:00,
2013-03-23 17:43:00,73.0,66.6,29.58,North,349,2.0,3.0,80,0.00,,,0.00,70.0,meteohub,2013-03-23 22:43:00,
2013-03-23 17:48:00,73.0,66.6,29.58,NNE,13,0.0,4.0,80,0.00,,,0.00,53.0,meteohub,2013-03-23 22:48:00,
2013-03-23 17:53:00,72.9,66.4,29.58,NE,44,0.0,4.0,80,0.00,,,0.00,49.0,meteohub,2013-03-23 22:53:00,
2013-03-23 17:58:00,72.9,66.4,29.58,North,1,0.0,5.0,80,0.00,,,0.00,28.0,meteohub,2013-03-23 22:58:00,
2013-03-23 18:03:00,72.7,66.2,29.58,North,0,0.0,5.0,80,0.00,,,0.00,19.0,meteohub,2013-03-23 23:03:00,
2013-03-23 18:08:00,72.7,66.6,29.58,North,0,0.0,4.0,81,0.00,,,0.00,26.0,meteohub,2013-03-23 23:08:00,
2013-03-23 18:13:00,72.7,66.6,29.58,NE,49,0.0,4.0,81,0.00,,,0.00,42.0,meteohub,2013-03-23 23:13:00,
2013-03-23 18:18:00,72.9,66.7,29.57,NE,49,0.0,3.0,81,0.00,,,0.00,83.0,meteohub,2013-03-23 23:18:00,
2013-03-23 18:23:00,73.0,66.9,29.57,NNE,29,0.0,3.0,81,0.00,,,0.00,60.0,meteohub,2013-03-23 23:23:00,
2013-03-23 18:28:00,73.0,66.9,29.57,NNE,29,0.0,1.0,81,0.00,,,0.00,47.0,meteohub,2013-03-23 23:28:00,
2013-03-23 18:33:00,72.9,66.7,29.58,NNE,29,0.0,1.0,81,0.00,,,0.00,46.0,meteohub,2013-03-23 23:33:00,
2013-03-23 18:38:00,72.9,66.7,29.58,NNE,29,0.0,1.0,81,0.00,,,0.00,19.0,meteohub,2013-03-23 23:38:00,
2013-03-23 18:43:00,72.9,66.7,29.58,NNE,29,0.0,0.0,81,0.00,,,0.00,19.0,meteohub,2013-03-23 23:43:00,
2013-03-23 18:48:00,72.7,66.6,29.58,NNE,29,0.0,0.0,81,0.00,,,0.00,19.0,meteohub,2013-03-23 23:48:00,
2013-03-23 18:53:00,72.7,66.9,29.58,NNE,29,0.0,1.0,82,0.00,,,0.00,11.0,meteohub,2013-03-23 23:53:00,
2013-03-23 18:58:00,72.3,66.9,29.58,NNE,29,0.0,1.0,83,0.00,,,0.00,0.0,meteohub,2013-03-23 23:58:00,
2013-03-23 19:03:00,72.1,67.1,29.58,NNE,29,0.0,1.0,84,0.00,,,0.00,0.0,meteohub,2013-03-24 00:03:00,
2013-03-23 19:08:00,71.8,66.4,29.58,NNE,29,0.0,0.0,83,0.00,,,0.00,0.0,meteohub,2013-03-24 00:08:00,
2013-03-23 19:14:00,71.4,66.0,29.58,NNE,29,0.0,0.0,83,0.00,,,0.00,0.0,meteohub,2013-03-24 00:14:00,
2013-03-23 19:19:00,71.2,65.8,29.58,NNE,29,0.0,0.0,83,0.00,,,0.00,0.0,meteohub,2013-03-24 00:19:00,
2013-03-23 19:24:00,71.2,65.8,29.58,NNE,29,0.0,0.0,83,0.00,,,0.00,0.0,meteohub,2013-03-24 00:24:00,
2013-03-23 19:29:00,71.1,66.0,29.58,NNE,29,0.0,0.0,84,0.00,,,0.00,0.0,meteohub,2013-03-24 00:29:00,
2013-03-23 19:34:00,70.9,65.8,29.58,NNE,29,0.0,0.0,84,0.00,,,0.00,0.0,meteohub,2013-03-24 00:34:00,
2013-03-23 19:39:00,70.5,65.5,29.58,NNE,29,0.0,0.0,84,0.00,,,0.00,0.0,meteohub,2013-03-24 00:39:00,
2013-03-23 19:44:00,70.3,65.7,29.58,NNE,29,0.0,0.0,85,0.00,,,0.00,0.0,meteohub,2013-03-24 00:44:00,
2013-03-23 19:49:00,70.3,65.7,29.58,NNE,29,0.0,0.0,85,0.00,,,0.00,0.0,meteohub,2013-03-24 00:49:00,
2013-03-23 19:54:00,70.3,65.7,29.58,NNE,29,0.0,0.0,85,0.00,,,0.00,0.0,meteohub,2013-03-24 00:54:00,
2013-03-23 19:59:00,70.2,65.8,29.59,NNE,29,0.0,0.0,86,0.00,,,0.00,0.0,meteohub,2013-03-24 00:59:00,
2013-03-23 20:04:00,70.2,65.8,29.59,NNE,29,0.0,0.0,86,0.00,,,0.00,0.0,meteohub,2013-03-24 01:04:00,
2013-03-23 20:09:00,70.0,65.7,29.59,NNE,29,0.0,0.0,86,0.00,,,0.00,0.0,meteohub,2013-03-24 01:09:00,
2013-03-23 20:14:00,70.0,65.7,29.60,NNE,29,0.0,0.0,86,0.00,,,0.00,0.0,meteohub,2013-03-24 01:14:00,
2013-03-23 20:19:00,69.8,65.5,29.59,NNE,29,0.0,0.0,86,0.00,,,0.00,0.0,meteohub,2013-03-24 01:19:00,
2013-03-23 20:24:00,69.8,65.5,29.59,NNE,29,0.0,0.0,86,0.00,,,0.00,0.0,meteohub,2013-03-24 01:24:00,
2013-03-23 20:29:00,69.8,65.5,29.60,NNE,29,0.0,1.0,86,0.00,,,0.00,0.0,meteohub,2013-03-24 01:29:00,
2013-03-23 20:34:00,69.6,65.3,29.60,NNE,29,0.0,0.0,86,0.00,,,0.00,0.0,meteohub,2013-03-24 01:34:00,
2013-03-23 20:39:00,69.6,65.3,29.60,NNE,29,0.0,0.0,86,0.00,,,0.00,0.0,meteohub,2013-03-24 01:39:00,
2013-03-23 20:44:00,70.0,66.0,29.61,NNE,29,0.0,2.0,87,0.03,,,0.00,0.0,meteohub,2013-03-24 01:44:00,
2013-03-23 20:49:00,69.4,65.5,29.61,South,181,0.0,2.0,87,0.03,,,0.00,0.0,meteohub,2013-03-24 01:49:00,
2013-03-23 20:54:00,69.1,64.8,29.62,South,181,1.0,9.0,86,0.06,,,0.06,0.0,meteohub,2013-03-24 01:54:00,
2013-03-23 20:59:00,68.5,64.6,29.62,South,181,0.0,9.0,87,0.06,,,0.06,0.0,meteohub,2013-03-24 01:59:00,
2013-03-23 21:04:00,68.2,64.2,29.62,South,181,0.0,2.0,87,0.11,,,0.09,0.0,meteohub,2013-03-24 02:04:00,
2013-03-23 21:09:00,67.6,63.7,29.62,South,190,0.0,2.0,87,0.11,,,0.09,0.0,meteohub,2013-03-24 02:09:00,
2013-03-23 21:14:00,67.3,63.7,29.62,SW,227,0.0,3.0,88,0.11,,,0.11,0.0,meteohub,2013-03-24 02:14:00,
2013-03-23 21:19:00,66.7,63.1,29.63,WSW,248,0.0,3.0,88,0.11,,,0.11,0.0,meteohub,2013-03-24 02:19:00,
2013-03-23 21:24:00,66.4,62.8,29.63,WSW,248,0.0,4.0,88,0.11,,,0.11,0.0,meteohub,2013-03-24 02:24:00,
2013-03-23 21:29:00,65.8,62.4,29.64,SSW,203,0.0,4.0,89,0.11,,,0.11,0.0,meteohub,2013-03-24 02:29:00,
2013-03-23 21:34:00,65.7,62.2,29.63,WNW,290,0.0,3.0,89,0.11,,,0.11,0.0,meteohub,2013-03-24 02:34:00,
2013-03-23 21:39:00,65.3,62.1,29.63,WNW,290,0.0,3.0,89,0.11,,,0.11,0.0,meteohub,2013-03-24 02:39:00,
2013-03-23 21:44:00,64.9,61.7,29.64,WNW,289,0.0,3.0,89,0.09,,,0.12,0.0,meteohub,2013-03-24 02:44:00,
2013-03-23 21:49:00,64.6,61.5,29.64,WNW,290,0.0,3.0,90,0.09,,,0.12,0.0,meteohub,2013-03-24 02:49:00,
2013-03-23 21:54:00,64.2,61.2,29.64,WNW,289,0.0,2.0,90,0.06,,,0.12,0.0,meteohub,2013-03-24 02:54:00,
2013-03-23 21:59:00,63.9,60.8,29.65,West,279,0.0,2.0,90,0.06,,,0.12,0.0,meteohub,2013-03-24 02:59:00,
2013-03-23 22:04:00,63.3,60.3,29.65,WNW,285,0.0,2.0,90,0.01,,,0.12,0.0,meteohub,2013-03-24 03:04:00,
2013-03-23 22:10:00,63.0,59.9,29.65,WSW,253,0.0,2.0,90,0.01,,,0.12,0.0,meteohub,2013-03-24 03:10:00,
2013-03-23 22:15:00,62.6,59.5,29.65,WSW,246,0.0,5.0,90,0.01,,,0.12,0.0,meteohub,2013-03-24 03:15:00,
2013-03-23 22:20:00,62.2,59.2,29.66,WNW,290,0.0,5.0,90,0.01,,,0.12,0.0,meteohub,2013-03-24 03:20:00,
2013-03-23 22:25:00,61.7,58.8,29.66,WNW,291,0.0,9.0,90,0.01,,,0.12,0.0,meteohub,2013-03-24 03:25:00,
2013-03-23 22:30:00,61.3,58.1,29.67,WNW,291,0.0,9.0,89,0.01,,,0.12,0.0,meteohub,2013-03-24 03:30:00,
2013-03-23 22:35:00,61.2,58.3,29.67,WNW,289,0.0,3.0,90,0.01,,,0.12,0.0,meteohub,2013-03-24 03:35:00,
2013-03-23 22:40:00,60.8,57.9,29.67,WNW,291,0.0,3.0,90,0.01,,,0.12,0.0,meteohub,2013-03-24 03:40:00,
2013-03-23 22:45:00,60.6,57.7,29.67,WNW,290,0.0,2.0,90,0.00,,,0.12,0.0,meteohub,2013-03-24 03:45:00,
2013-03-23 22:50:00,60.4,57.6,29.67,WNW,291,0.0,2.0,90,0.00,,,0.12,0.0,meteohub,2013-03-24 03:50:00,
2013-03-23 22:55:00,60.3,57.4,29.67,WNW,293,0.0,1.0,90,0.00,,,0.12,0.0,meteohub,2013-03-24 03:55:00,
2013-03-23 23:00:00,60.1,57.2,29.67,WNW,296,0.0,1.0,90,0.00,,,0.12,0.0,meteohub,2013-03-24 04:00:00,
2013-03-23 23:05:00,59.9,57.0,29.68,WNW,297,2.0,5.0,90,0.00,,,0.12,0.0,meteohub,2013-03-24 04:05:00,
2013-03-23 23:10:00,59.5,56.7,29.68,WNW,296,0.0,5.0,90,0.00,,,0.12,0.0,meteohub,2013-03-24 04:10:00,
2013-03-23 23:15:00,59.5,56.7,29.68,WNW,297,1.0,4.0,90,0.00,,,0.12,0.0,meteohub,2013-03-24 04:15:00,
2013-03-23 23:20:00,59.4,56.5,29.68,WNW,299,3.0,4.0,90,0.00,,,0.12,0.0,meteohub,2013-03-24 04:20:00,
2013-03-23 23:25:00,59.0,56.1,29.68,WNW,287,0.0,4.0,90,0.00,,,0.12,0.0,meteohub,2013-03-24 04:25:00,
2013-03-23 23:30:00,59.0,56.1,29.68,NW,306,0.0,4.0,90,0.00,,,0.12,0.0,meteohub,2013-03-24 04:30:00,
2013-03-23 23:35:00,59.0,56.1,29.68,WNW,297,0.0,5.0,90,0.00,,,0.12,0.0,meteohub,2013-03-24 04:35:00,
2013-03-23 23:40:00,58.8,55.9,29.68,WNW,283,0.0,5.0,90,0.00,,,0.12,0.0,meteohub,2013-03-24 04:40:00,
2013-03-23 23:45:00,58.6,55.4,29.68,WNW,283,2.0,4.0,89,0.00,,,0.12,0.0,meteohub,2013-03-24 04:45:00,
2013-03-23 23:50:00,58.6,55.8,29.69,NW,304,0.0,4.0,90,0.00,,,0.12,0.0,meteohub,2013-03-24 04:50:00,
2013-03-23 23:56:00,58.6,55.8,29.68,NW,304,0.0,4.0,90,0.00,,,0.12,0.0,meteohub,2013-03-24 04:56:00,